Time;durP1;ratioP1;P1;durP2;ratioP2;P2;SDS_P1;SDS_P2;PMS_P1;PMS_P2;Temp;Humidity;BMP_temperature;BMP_pressure;BME280_temperature;BME280_humidity;BME280_pressure;Samples;Min_cycle;Max_cycle;Signal;HPM_P1;HPM_P2
2021/04/24 10:40:59;;;;;;;17.35;7.95;;;16.70;51.90;;;;;;12047880;27;20413;-74
2021/04/24 10:46:47;;;;;;;20.40;8.02;;;17.00;51.20;;;;;;12083034;28;20540;-74
2021/04/24 10:52:34;;;;;;;616.95;374.10;;;17.80;50.00;;;;;;12092577;27;20406;-78
2021/04/24 10:58:22;;;;;;;23.40;8.40;;;18.40;49.40;;;;;;12091346;28;20048;-79
2021/04/24 11:04:39;;;;;;;17.25;7.72;;;18.60;48.30;;;;;;12104482;27;20066;-79
2021/04/24 11:10:29;;;;;;;15.10;8.13;;;18.90;47.90;;;;;;12082838;28;20706;-79
2021/04/24 11:16:18;;;;;;;18.00;7.03;;;19.20;47.50;;;;;;12035107;28;20491;-78
2021/04/24 11:22:32;;;;;;;18.83;8.02;;;19.30;45.80;;;;;;12032776;28;20057;-79
2021/04/24 11:28:20;;;;;;;14.00;7.65;;;19.30;46.40;;;;;;12038328;28;20503;-78
2021/04/24 11:40:29;;;;;;;17.13;7.57;;;19.60;46.50;;;;;;12107517;27;20464;-79
2021/04/24 11:46:35;;;;;;;13.82;7.30;;;19.80;44.30;;;;;;12055552;28;20041;-80
2021/04/24 11:52:22;;;;;;;13.05;7.32;;;19.80;44.50;;;;;;12086587;28;20064;-79
2021/04/24 11:58:11;;;;;;;16.88;6.88;;;20.10;44.20;;;;;;12091888;28;20105;-78
2021/04/24 12:03:57;;;;;;;19.88;8.20;;;20.10;43.50;;;;;;12087947;28;20059;-78
2021/04/24 12:10:05;;;;;;;15.20;8.27;;;20.30;44.30;;;;;;12076995;28;20056;-78
2021/04/24 12:15:52;;;;;;;16.80;8.15;;;20.50;43.00;;;;;;12059425;28;20158;-79
2021/04/24 12:21:39;;;;;;;24.02;8.15;;;20.50;44.60;;;;;;12078365;28;20151;-78
2021/04/24 12:27:33;;;;;;;17.05;8.73;;;20.60;43.70;;;;;;12073842;28;20052;-78
2021/04/24 12:33:22;;;;;;;16.58;8.50;;;20.80;43.70;;;;;;12071512;28;20049;-79
2021/04/24 12:39:15;;;;;;;16.73;8.02;;;20.90;43.40;;;;;;12104423;28;20131;-79
2021/04/24 12:45:10;;;;;;;17.10;8.90;;;21.10;43.50;;;;;;12123303;28;20048;-78
2021/04/24 12:50:58;;;;;;;17.00;8.85;;;21.30;43.60;;;;;;12089770;28;20045;-79
2021/04/24 12:56:45;;;;;;;19.00;8.18;;;21.10;41.30;;;;;;12090772;28;20058;-79
2021/04/24 13:02:35;;;;;;;15.55;8.85;;;21.30;42.60;;;;;;12091966;28;20060;-75
2021/04/24 13:08:22;;;;;;;26.33;8.57;;;21.40;42.50;;;;;;12079631;28;20066;-73
2021/04/24 13:14:11;;;;;;;16.88;8.35;;;21.80;43.10;;;;;;12081116;28;20702;-74
2021/04/24 13:20:00;;;;;;;13.50;7.38;;;21.90;42.50;;;;;;12077778;28;20632;-74
2021/04/24 13:25:48;;;;;;;13.18;7.78;;;22.00;41.40;;;;;;12082987;28;20117;-74
2021/04/24 13:31:34;;;;;;;15.35;7.80;;;22.00;40.00;;;;;;12085089;28;20677;-73
2021/04/24 13:37:23;;;;;;;19.50;7.60;;;22.00;40.10;;;;;;12083244;28;20059;-74
2021/04/24 13:43:11;;;;;;;15.93;7.82;;;22.20;39.50;;;;;;12085905;28;20044;-75
2021/04/24 13:49:12;;;;;;;15.95;7.93;;;22.00;39.30;;;;;;12086223;28;20092;-73
2021/04/24 13:54:58;;;;;;;211.23;132.10;;;22.10;40.90;;;;;;12072749;28;20110;-81
2021/04/24 14:00:46;;;;;;;19.55;9.40;;;22.40;40.20;;;;;;12082801;28;20052;-78
2021/04/24 14:06:33;;;;;;;19.98;8.88;;;22.60;40.50;;;;;;12081634;28;20051;-81
2021/04/24 14:12:21;;;;;;;21.90;9.48;;;22.60;39.80;;;;;;12076038;28;20074;-82
2021/04/24 14:18:09;;;;;;;17.20;8.32;;;22.40;40.60;;;;;;12088545;28;20058;-80
2021/04/24 14:23:57;;;;;;;17.02;9.57;;;22.60;41.30;;;;;;12084068;28;20040;-80
2021/04/24 14:29:44;;;;;;;19.77;9.68;;;22.70;40.10;;;;;;12074624;28;20105;-80
2021/04/24 14:35:32;;;;;;;19.10;9.25;;;22.80;40.00;;;;;;12090056;28;20063;-82
2021/04/24 14:41:18;;;;;;;18.95;9.80;;;22.90;40.10;;;;;;12075533;28;20147;-76
2021/04/24 14:47:05;;;;;;;15.98;8.82;;;23.00;40.20;;;;;;12082514;28;20059;-78
2021/04/24 14:53:18;;;;;;;36.35;17.08;;;23.00;40.40;;;;;;12068295;28;20199;-77
2021/04/24 14:59:04;;;;;;;22.13;9.13;;;23.10;40.00;;;;;;12068349;28;20087;-76
2021/04/24 15:04:50;;;;;;;15.68;8.75;;;23.30;39.20;;;;;;12130895;27;20205;-81
2021/04/24 15:10:39;;;;;;;16.20;7.85;;;23.40;39.30;;;;;;12141359;28;20079;-80
2021/04/24 15:16:25;;;;;;;32.90;9.82;;;23.40;39.70;;;;;;12149781;28;20127;-81
2021/04/24 15:22:11;;;;;;;21.50;8.98;;;23.40;38.70;;;;;;12158411;28;20059;-81
2021/04/24 15:28:00;;;;;;;13.90;7.30;;;23.30;38.00;;;;;;12157447;28;20051;-83
2021/04/24 15:33:48;;;;;;;12.63;7.22;;;23.20;39.20;;;;;;12139875;27;20099;-81
2021/04/24 15:39:34;;;;;;;15.20;7.72;;;23.50;38.60;;;;;;12125725;27;20039;-81
2021/04/24 15:45:21;;;;;;;19.25;8.57;;;23.60;37.30;;;;;;12150928;28;20096;-82
2021/04/24 15:51:10;;;;;;;15.45;7.72;;;23.60;37.00;;;;;;12152343;28;20052;-80
2021/04/24 15:56:57;;;;;;;14.23;8.10;;;23.80;36.30;;;;;;12154933;28;20051;-82
2021/04/24 16:02:46;;;;;;;16.77;7.88;;;23.30;35.90;;;;;;12106148;28;20051;-81
2021/04/24 16:08:32;;;;;;;14.52;7.38;;;23.40;35.30;;;;;;12140854;28;20102;-80
2021/04/24 16:14:19;;;;;;;15.15;7.00;;;25.10;34.60;;;;;;12141363;28;20056;-80
2021/04/24 16:20:12;;;;;;;10.88;6.60;;;27.70;31.30;;;;;;12156118;28;20495;-79
2021/04/24 16:25:58;;;;;;;10.00;6.43;;;29.90;28.80;;;;;;12159099;28;20043;-83
2021/04/24 16:31:45;;;;;;;16.50;7.30;;;31.80;27.80;;;;;;12170407;28;20050;-78
2021/04/24 16:37:34;;;;;;;11.77;6.88;;;33.20;27.40;;;;;;12165778;28;20047;-78
2021/04/24 16:43:20;;;;;;;19.55;6.78;;;34.60;26.10;;;;;;12170434;28;20498;-80
2021/04/24 16:49:08;;;;;;;13.88;7.07;;;34.70;26.00;;;;;;12123387;27;20081;-76
2021/04/24 16:54:55;;;;;;;9.55;5.97;;;35.20;25.70;;;;;;12143971;27;20065;-76
2021/04/24 17:00:41;;;;;;;14.02;6.82;;;33.60;26.50;;;;;;12140808;27;20044;-77
2021/04/24 17:06:28;;;;;;;12.40;7.07;;;31.10;28.20;;;;;;12142938;28;20052;-76
2021/04/24 17:12:15;;;;;;;15.18;8.55;;;28.90;30.10;;;;;;12134328;27;20100;-74
2021/04/24 17:18:02;;;;;;;23.10;11.55;;;28.70;30.60;;;;;;12131221;27;20218;-78
2021/04/24 17:23:48;;;;;;;20.50;11.02;;;28.30;32.10;;;;;;12123081;27;20055;-77
2021/04/24 17:29:35;;;;;;;18.80;9.73;;;27.10;34.20;;;;;;12136811;28;20118;-78
2021/04/24 17:35:22;;;;;;;22.20;11.48;;;27.60;33.70;;;;;;12130115;27;20076;-77
2021/04/24 17:41:08;;;;;;;22.50;11.15;;;27.60;33.50;;;;;;12079261;27;20063;-77
2021/04/24 17:47:00;;;;;;;18.55;10.80;;;26.00;35.50;;;;;;12138487;28;20043;-77
2021/04/24 17:52:47;;;;;;;20.65;9.73;;;24.70;37.40;;;;;;12133729;28;20064;-79
2021/04/24 17:58:33;;;;;;;20.75;10.57;;;23.90;39.30;;;;;;12130833;28;20051;-78
2021/04/24 18:04:21;;;;;;;19.85;10.90;;;23.20;39.70;;;;;;12133966;27;22657;-77
2021/04/24 18:10:09;;;;;;;24.45;10.98;;;22.60;40.70;;;;;;12135322;28;20426;-76
2021/04/24 18:15:55;;;;;;;21.63;10.70;;;22.30;41.50;;;;;;12134474;28;20050;-78
2021/04/24 18:21:43;;;;;;;24.63;12.23;;;22.10;42.20;;;;;;12129551;27;20047;-78
2021/04/24 18:27:29;;;;;;;19.23;10.52;;;22.00;42.70;;;;;;12126449;27;20533;-77
2021/04/24 18:33:16;;;;;;;20.38;10.82;;;21.80;42.90;;;;;;12130354;27;20594;-78
2021/04/24 18:39:04;;;;;;;19.20;11.02;;;21.50;43.40;;;;;;12125627;28;20052;-78
2021/04/24 18:44:51;;;;;;;20.65;12.15;;;21.20;43.70;;;;;;12132344;27;20104;-78
2021/04/24 18:50:38;;;;;;;22.00;10.25;;;20.90;44.10;;;;;;12127821;27;20056;-77
2021/04/24 18:56:26;;;;;;;31.15;14.68;;;20.80;44.60;;;;;;12133670;28;20691;-78
2021/04/24 19:02:12;;;;;;;20.35;9.98;;;20.60;45.00;;;;;;12116867;28;20055;-77
2021/04/24 19:07:59;;;;;;;19.63;9.57;;;20.40;45.00;;;;;;12134306;28;20585;-79
2021/04/24 19:13:46;;;;;;;17.15;9.10;;;20.30;45.60;;;;;;12130967;28;20978;-78
2021/04/24 19:19:35;;;;;;;16.73;9.07;;;20.20;45.70;;;;;;12119042;27;20130;-78
2021/04/24 19:25:21;;;;;;;23.95;9.27;;;20.10;46.00;;;;;;12125959;28;20060;-80
2021/04/24 19:31:09;;;;;;;19.77;8.90;;;20.10;46.40;;;;;;12133117;28;20055;-78
2021/04/24 19:36:56;;;;;;;24.67;9.75;;;19.90;46.60;;;;;;12129955;27;20058;-78
2021/04/24 19:42:44;;;;;;;24.30;9.10;;;19.90;46.60;;;;;;12137039;28;20051;-78
2021/04/24 19:48:33;;;;;;;21.70;8.23;;;19.70;47.20;;;;;;12132875;28;20055;-78
2021/04/24 19:54:19;;;;;;;15.75;8.02;;;19.50;47.50;;;;;;12130478;27;20081;-76
2021/04/24 20:00:08;;;;;;;18.33;8.38;;;19.50;47.80;;;;;;12129979;28;20523;-76
2021/04/24 20:05:58;;;;;;;20.23;7.95;;;19.50;48.10;;;;;;12139017;28;20039;-76
2021/04/24 20:11:44;;;;;;;16.30;7.68;;;19.40;48.20;;;;;;12138864;28;20676;-76
2021/04/24 20:17:31;;;;;;;18.48;7.90;;;19.30;48.40;;;;;;12137403;28;20594;-76
2021/04/24 20:23:18;;;;;;;14.65;7.72;;;19.20;48.90;;;;;;12134667;28;20051;-76
2021/04/24 20:29:05;;;;;;;13.48;7.75;;;19.10;48.60;;;;;;12137117;27;21114;-77
2021/04/24 20:34:52;;;;;;;15.48;7.45;;;19.00;49.00;;;;;;12139245;27;20074;-77
2021/04/24 20:40:39;;;;;;;16.00;8.00;;;18.90;49.10;;;;;;12137457;27;20109;-76
2021/04/24 20:46:25;;;;;;;15.77;7.80;;;18.70;49.10;;;;;;12140345;28;20035;-76
2021/04/24 20:52:14;;;;;;;15.52;8.07;;;18.60;49.10;;;;;;12137351;28;20059;-76
2021/04/24 20:58:01;;;;;;;16.70;8.60;;;18.60;49.10;;;;;;12138525;27;20050;-76
2021/04/24 21:03:47;;;;;;;16.98;8.55;;;18.50;49.10;;;;;;12136629;28;20047;-76
2021/04/24 21:09:34;;;;;;;20.52;7.57;;;18.50;49.00;;;;;;12136414;27;20063;-76
2021/04/24 21:15:21;;;;;;;15.98;7.85;;;18.50;49.00;;;;;;12136841;28;20067;-77
2021/04/24 21:21:07;;;;;;;19.95;8.50;;;18.50;49.00;;;;;;12139129;28;20439;-77
2021/04/24 21:26:54;;;;;;;16.85;8.20;;;18.30;49.20;;;;;;12138169;28;20104;-77
2021/04/24 21:32:42;;;;;;;16.33;8.15;;;18.30;49.50;;;;;;12135671;27;20055;-77
2021/04/24 21:38:29;;;;;;;18.73;8.88;;;18.20;49.60;;;;;;12134954;27;20097;-76
2021/04/24 21:44:15;;;;;;;15.43;8.25;;;18.20;49.90;;;;;;12136095;28;20063;-76
2021/04/24 21:50:03;;;;;;;19.35;9.52;;;18.20;50.00;;;;;;12134654;28;20498;-77
2021/04/24 21:55:49;;;;;;;16.48;7.90;;;18.10;50.20;;;;;;12145485;27;20040;-77
2021/04/24 22:01:35;;;;;;;19.15;9.30;;;18.10;50.20;;;;;;12135169;28;20051;-76
2021/04/24 22:07:22;;;;;;;23.25;9.57;;;18.10;50.40;;;;;;12139712;27;20051;-76
2021/04/24 22:13:09;;;;;;;19.05;9.52;;;18.10;50.60;;;;;;12135143;27;20051;-76
2021/04/24 22:18:56;;;;;;;20.90;9.20;;;18.10;50.60;;;;;;12133383;28;20808;-76
2021/04/24 22:24:43;;;;;;;19.35;9.48;;;18.00;50.70;;;;;;12130654;28;20048;-77
2021/04/24 22:30:30;;;;;;;20.13;9.48;;;17.90;51.00;;;;;;12134091;28;20394;-74
2021/04/24 22:36:16;;;;;;;22.65;10.80;;;17.80;51.10;;;;;;12132624;28;20047;-74
2021/04/24 22:42:04;;;;;;;22.92;10.15;;;17.60;51.50;;;;;;12135052;27;20138;-76
2021/04/24 22:47:54;;;;;;;21.88;9.75;;;17.70;51.60;;;;;;12138046;28;20413;-75
2021/04/24 22:53:41;;;;;;;20.10;9.32;;;17.70;51.70;;;;;;12138097;27;20524;-75
2021/04/24 22:59:29;;;;;;;20.35;9.93;;;17.70;51.80;;;;;;12132600;27;20048;-75
2021/04/24 23:05:18;;;;;;;22.77;10.07;;;17.60;51.60;;;;;;12131790;28;20058;-74
2021/04/24 23:11:04;;;;;;;19.88;9.95;;;17.50;51.40;;;;;;12129396;28;20047;-75
2021/04/24 23:16:51;;;;;;;22.58;10.65;;;17.50;51.70;;;;;;12131600;28;20048;-75
2021/04/24 23:22:40;;;;;;;22.45;10.35;;;17.60;51.70;;;;;;12136210;27;20459;-74
2021/04/24 23:28:28;;;;;;;20.40;10.48;;;17.50;51.50;;;;;;12134265;27;20056;-75
2021/04/24 23:34:15;;;;;;;20.70;10.40;;;17.40;52.20;;;;;;12132741;27;20056;-75
2021/04/24 23:40:02;;;;;;;21.38;9.60;;;17.40;51.90;;;;;;12133005;28;20051;-76
2021/04/24 23:45:48;;;;;;;22.33;8.85;;;17.30;52.00;;;;;;12131482;28;20051;-74
2021/04/24 23:51:36;;;;;;;20.50;9.52;;;17.20;52.00;;;;;;12130468;28;20056;-76
2021/04/24 23:57:22;;;;;;;16.13;9.02;;;17.20;51.80;;;;;;12131261;28;20108;-77
